FEFF Airport Information

Runway Information
Runway 17 Length 8530 ft width 148 ft
Elevation 1208 ft Threshold 0 ft Heading 165
Runway 35 Length 8530 ft Width 148 ft
Elevation 1182 ft Threshold 0 ft Heading 345
Airport Frequencies
Type A/G Name RDO Frequency 655.9 MHZ
Type TWR Name TWR Frequency 119.7 MHZ
Airport Navaids
Type VOR-DME Name Bangui M Poko Frequency 117300 KHZ
Airport Weather Information & NOTAM
ADDS - METARS form results

(2109 UTC 12 December 2018)
Data provider http://aviationweather.gov/metar/data/
 
METAR text: FEFF 122100Z VRB02KT 6000 NSC 24/22 Q1013 NOSIG
Conditions at: FEFF (BANGUI/M'POKO (M, CF) observed 2100 UTC 12 December 2018
Temperature: 24.0°C (75°F)
Dewpoint: 22.0°C (72°F) [RH = 89%]
Pressure (altimeter): 29.91 inches Hg (1013.0 mb)
Winds: variable direction winds at 2 MPH (2 knots; 1.0 m/s)
Visibility: 4 miles ( 6 km)
Ceiling: at least 12,000 feet AGL
Clouds: sky clear below 12,000 feet AGL
Weather: no significant weather observed at this time